Time;durP1;ratioP1;P1;durP2;ratioP2;P2;SDS_P1;SDS_P2;PMS_P1;PMS_P2;Temp;Humidity;BMP_temperature;BMP_pressure;BME280_temperature;BME280_humidity;BME280_pressure;Samples;Min_cycle;Max_cycle;Signal;HPM_P1;HPM_P2
2023/04/14 00:00:20;;;;;;;12.40;11.90;;;8.60;99.90;;;;;;5097252;28;20446;-81
2023/04/14 00:02:48;;;;;;;12.87;12.37;;;8.60;99.90;;;;;;5099627;28;20473;-81
2023/04/14 00:05:16;;;;;;;11.70;11.40;;;8.60;99.90;;;;;;5103358;27;20473;-81
2023/04/14 00:07:45;;;;;;;11.80;11.50;;;8.60;99.90;;;;;;5103158;27;20460;-81
2023/04/14 00:10:13;;;;;;;12.80;12.20;;;8.60;99.90;;;;;;5098758;28;20452;-78
2023/04/14 00:12:41;;;;;;;12.00;11.43;;;8.60;99.90;;;;;;5098400;28;20460;-79
2023/04/14 00:15:10;;;;;;;12.17;11.67;;;8.60;99.90;;;;;;5099070;28;20469;-80
2023/04/14 00:17:40;;;;;;;11.97;11.40;;;8.60;99.90;;;;;;5101166;28;20996;-80
2023/04/14 00:20:09;;;;;;;12.90;12.20;;;8.60;99.90;;;;;;5094864;27;20472;-78
2023/04/14 00:22:37;;;;;;;11.53;11.03;;;8.60;99.60;;;;;;5091751;27;20462;-80
2023/04/14 00:25:06;;;;;;;11.90;11.40;;;8.50;52.70;;;;;;5097579;28;22404;-78
2023/04/14 00:27:34;;;;;;;12.20;11.80;;;8.60;1.00;;;;;;5096615;28;20464;-78
2023/04/14 00:30:02;;;;;;;12.07;11.27;;;8.50;1.00;;;;;;5098148;27;20568;-81
2023/04/14 00:32:31;;;;;;;11.23;10.83;;;8.50;1.00;;;;;;5100113;28;20567;-80
2023/04/14 00:35:02;;;;;;;12.00;11.47;;;8.50;1.00;;;;;;5099279;27;20461;-82
2023/04/14 00:37:30;;;;;;;11.33;10.60;;;8.60;1.00;;;;;;5097650;27;20546;-79
2023/04/14 00:39:58;;;;;;;10.83;10.20;;;8.60;1.00;;;;;;5097640;28;20477;-79
2023/04/14 00:42:26;;;;;;;11.40;11.00;;;8.50;1.00;;;;;;5075127;28;20952;-79
2023/04/14 00:44:54;;;;;;;12.23;11.63;;;8.50;1.00;;;;;;5098303;28;21401;-78
2023/04/14 00:47:23;;;;;;;11.47;10.70;;;8.60;1.00;;;;;;5099728;28;20444;-79
2023/04/14 00:49:51;;;;;;;11.97;11.17;;;8.50;1.00;;;;;;5096954;28;20457;-78
2023/04/14 00:52:23;;;;;;;12.47;11.40;;;8.50;1.00;;;;;;5097392;28;20532;-78
2023/04/14 00:54:51;;;;;;;10.80;10.17;;;8.50;1.00;;;;;;5098462;27;20441;-78
2023/04/14 00:57:19;;;;;;;10.73;10.07;;;8.50;1.00;;;;;;5099711;27;20499;-79
2023/04/14 00:59:47;;;;;;;10.17;9.60;;;8.40;1.00;;;;;;5095506;27;20484;-78
2023/04/14 01:02:15;;;;;;;10.07;9.53;;;8.40;1.00;;;;;;5095322;28;20441;-78
2023/04/14 01:04:44;;;;;;;10.30;9.77;;;8.40;1.00;;;;;;5097440;27;20465;-79
2023/04/14 01:07:24;;;;;;;9.80;9.40;;;8.40;1.00;;;;;;5095897;27;20468;-78
2023/04/14 01:09:54;;;;;;;11.07;10.43;;;8.40;1.00;;;;;;5096122;28;20448;-79
2023/04/14 01:12:28;;;;;;;11.27;10.67;;;8.40;1.00;;;;;;5084402;28;20467;-80
2023/04/14 01:15:04;;;;;;;11.00;10.10;;;8.30;1.00;;;;;;5097410;28;20475;-79
2023/04/14 01:17:39;;;;;;;10.53;9.93;;;8.30;1.00;;;;;;5094169;27;20453;-79
2023/04/14 01:20:13;;;;;;;10.23;9.73;;;8.30;1.00;;;;;;5094652;28;20702;-78
2023/04/14 01:22:48;;;;;;;10.87;10.20;;;8.30;1.00;;;;;;5097518;28;20493;-78
2023/04/14 01:25:34;;;;;;;11.70;10.47;;;8.10;1.00;;;;;;5098265;28;20492;-77
2023/04/14 01:28:14;;;;;;;11.60;10.80;;;8.10;1.00;;;;;;5091163;28;20474;-80
2023/04/14 01:30:55;;;;;;;11.47;10.80;;;8.10;1.00;;;;;;5090853;27;20455;-80
2023/04/14 01:33:26;;;;;;;10.07;9.60;;;8.10;1.00;;;;;;5091625;27;20463;-79
2023/04/14 01:35:58;;;;;;;10.33;9.87;;;8.10;1.00;;;;;;5096301;27;20478;-79
2023/04/14 01:38:29;;;;;;;10.00;9.60;;;8.10;1.00;;;;;;5096486;28;20542;-78
2023/04/14 01:41:02;;;;;;;9.73;9.43;;;8.00;1.00;;;;;;5097566;28;22362;-79
2023/04/14 01:43:32;;;;;;;10.60;9.93;;;8.00;1.00;;;;;;5095979;28;20511;-79
2023/04/14 01:46:05;;;;;;;11.00;10.23;;;8.00;1.00;;;;;;5085438;28;20528;-79
2023/04/14 01:48:36;;;;;;;10.50;10.13;;;8.00;1.00;;;;;;5099781;28;20496;-81
2023/04/14 01:51:05;;;;;;;10.93;10.10;;;7.90;1.00;;;;;;5084085;28;20463;-79
2023/04/14 01:53:36;;;;;;;11.47;10.70;;;7.90;1.00;;;;;;5099550;28;20452;-81
2023/04/14 01:56:07;;;;;;;10.33;9.83;;;7.90;1.00;;;;;;5093786;27;20904;-79
2023/04/14 01:58:37;;;;;;;10.53;10.03;;;7.80;1.00;;;;;;5097341;28;20452;-80
2023/04/14 02:01:06;;;;;;;10.10;9.70;;;7.90;1.00;;;;;;5096425;28;20451;-81
2023/04/14 02:03:36;;;;;;;11.10;10.60;;;7.90;1.00;;;;;;5097700;28;20464;-78
2023/04/14 02:06:05;;;;;;;10.67;9.97;;;7.90;1.00;;;;;;5098702;27;20523;-79
2023/04/14 02:08:34;;;;;;;10.43;10.03;;;7.80;1.00;;;;;;5097938;27;21055;-79
2023/04/14 02:11:04;;;;;;;10.30;9.50;;;7.80;1.00;;;;;;5094427;28;21261;-79
2023/04/14 02:13:33;;;;;;;10.10;9.60;;;7.70;1.00;;;;;;5094260;28;20468;-81
2023/04/14 02:16:02;;;;;;;10.40;9.90;;;7.70;1.00;;;;;;5094644;28;20671;-78
2023/04/14 02:18:32;;;;;;;10.70;10.27;;;7.60;1.00;;;;;;5093477;28;20460;-78
2023/04/14 02:21:03;;;;;;;10.63;10.10;;;7.60;1.00;;;;;;5089590;28;20473;-78
2023/04/14 02:23:31;;;;;;;10.83;9.73;;;7.50;1.00;;;;;;5099815;28;20491;-79
2023/04/14 02:26:04;;;;;;;9.97;9.57;;;7.50;1.00;;;;;;5095525;28;20529;-79
2023/04/14 02:28:36;;;;;;;10.67;9.73;;;7.50;1.00;;;;;;5097770;27;20782;-78
2023/04/14 02:31:09;;;;;;;10.33;9.73;;;7.50;1.00;;;;;;5094334;27;20483;-79
2023/04/14 02:33:39;;;;;;;10.33;9.60;;;7.50;1.00;;;;;;5097958;28;20453;-78
2023/04/14 02:36:13;;;;;;;9.73;9.30;;;7.50;1.00;;;;;;5100459;28;20464;-79
2023/04/14 02:38:46;;;;;;;10.60;9.90;;;7.50;1.00;;;;;;5094607;28;20464;-79
2023/04/14 02:41:22;;;;;;;9.80;9.20;;;7.50;1.00;;;;;;5093647;28;20446;-80
2023/04/14 02:43:55;;;;;;;9.90;9.50;;;7.50;1.00;;;;;;5100964;28;20514;-83
2023/04/14 02:46:25;;;;;;;9.00;8.70;;;7.50;1.00;;;;;;5079101;28;21073;-81
2023/04/14 02:48:55;;;;;;;9.93;9.33;;;7.50;1.00;;;;;;5095233;28;21268;-79
2023/04/14 02:51:26;;;;;;;9.80;9.23;;;7.40;1.00;;;;;;5098120;28;20448;-80
2023/04/14 02:53:54;;;;;;;9.40;9.10;;;7.40;1.00;;;;;;5101925;28;20460;-81
2023/04/14 02:56:23;;;;;;;9.67;9.13;;;7.40;1.00;;;;;;5097050;28;20529;-82
2023/04/14 02:58:52;;;;;;;9.40;9.00;;;7.40;1.00;;;;;;5097983;28;20995;-81
2023/04/14 03:01:21;;;;;;;9.77;9.27;;;7.40;1.00;;;;;;5094829;28;20450;-78
2023/04/14 03:03:50;;;;;;;10.20;9.53;;;7.30;1.00;;;;;;5102094;27;21046;-83
2023/04/14 03:06:19;;;;;;;10.10;9.60;;;7.20;1.00;;;;;;5097536;28;20520;-78
2023/04/14 03:08:50;;;;;;;9.67;9.20;;;7.20;1.00;;;;;;5079364;28;20527;-78
2023/04/14 03:11:20;;;;;;;9.17;8.77;;;7.20;1.00;;;;;;5094906;28;20459;-81
2023/04/14 03:13:51;;;;;;;9.73;8.97;;;7.20;1.00;;;;;;5097546;28;20444;-78
2023/04/14 03:16:20;;;;;;;9.53;9.13;;;7.10;1.00;;;;;;5099028;28;20473;-79
2023/04/14 03:18:50;;;;;;;9.67;8.80;;;7.00;1.00;;;;;;5098149;28;20468;-79
2023/04/14 03:21:20;;;;;;;10.03;9.40;;;7.00;1.00;;;;;;5096439;28;20460;-78
2023/04/14 03:23:52;;;;;;;9.40;8.80;;;7.00;1.00;;;;;;5094621;27;20451;-80
2023/04/14 03:26:23;;;;;;;9.40;8.80;;;7.00;1.00;;;;;;5097056;28;20479;-81
2023/04/14 03:28:53;;;;;;;9.57;9.07;;;7.00;1.00;;;;;;5092908;28;20971;-78
2023/04/14 03:31:29;;;;;;;9.53;9.10;;;7.00;1.00;;;;;;5095433;28;20452;-80
2023/04/14 03:33:59;;;;;;;9.77;9.27;;;7.10;1.00;;;;;;5098200;28;20451;-79
2023/04/14 03:36:31;;;;;;;10.53;9.73;;;7.10;1.00;;;;;;5097310;28;20480;-80
2023/04/14 03:39:04;;;;;;;10.50;9.50;;;7.00;1.00;;;;;;5096210;28;20479;-79
2023/04/14 03:41:36;;;;;;;9.80;8.93;;;7.00;1.00;;;;;;5096117;28;20471;-80
2023/04/14 03:44:06;;;;;;;9.30;8.80;;;6.90;1.00;;;;;;5094896;28;20492;-80
2023/04/14 03:46:34;;;;;;;9.40;8.80;;;6.90;1.00;;;;;;5092063;28;20554;-79
2023/04/14 03:49:09;;;;;;;9.73;9.20;;;6.90;1.00;;;;;;5076609;28;20599;-79
2023/04/14 03:51:40;;;;;;;10.70;9.70;;;6.80;1.00;;;;;;5092516;28;20463;-80
2023/04/14 03:54:14;;;;;;;10.10;9.43;;;6.80;1.00;;;;;;5090097;28;20456;-80
2023/04/14 03:56:47;;;;;;;9.37;8.97;;;6.70;1.00;;;;;;5092225;28;20484;-78
2023/04/14 03:59:18;;;;;;;10.40;9.50;;;6.70;1.00;;;;;;5093381;28;20455;-81
2023/04/14 04:01:47;;;;;;;9.03;8.73;;;6.70;1.00;;;;;;5086076;28;20709;-80
2023/04/14 04:04:16;;;;;;;10.30;9.60;;;6.70;1.00;;;;;;5094924;28;20465;-80
2023/04/14 04:06:45;;;;;;;10.23;9.43;;;6.70;1.00;;;;;;5098261;28;20509;-80
2023/04/14 04:09:16;;;;;;;9.73;9.13;;;6.60;1.00;;;;;;5096560;28;20443;-79
2023/04/14 04:11:47;;;;;;;9.80;9.40;;;6.50;1.00;;;;;;5094333;28;20967;-79
2023/04/14 04:14:18;;;;;;;11.37;9.93;;;6.50;1.00;;;;;;5099509;28;20458;-79
2023/04/14 04:16:49;;;;;;;11.03;10.53;;;6.50;1.00;;;;;;5098782;28;21012;-80
2023/04/14 04:19:20;;;;;;;10.57;10.17;;;6.50;1.00;;;;;;5093844;28;20438;-80
2023/04/14 04:21:51;;;;;;;11.13;10.20;;;6.60;1.00;;;;;;5095659;28;20443;-79
2023/04/14 04:24:24;;;;;;;11.43;10.50;;;6.50;1.00;;;;;;5095577;28;20462;-80
2023/04/14 04:26:54;;;;;;;10.87;9.83;;;6.40;1.00;;;;;;5095764;28;20470;-82
2023/04/14 04:29:23;;;;;;;9.80;9.50;;;6.50;1.00;;;;;;5092561;28;22070;-77
2023/04/14 04:31:52;;;;;;;9.77;9.37;;;6.40;1.00;;;;;;5099026;28;21278;-80
2023/04/14 04:34:24;;;;;;;10.53;10.13;;;6.30;1.00;;;;;;5092703;28;21048;-79
2023/04/14 04:36:53;;;;;;;10.47;9.77;;;6.30;1.00;;;;;;5094235;28;20482;-79
2023/04/14 04:39:23;;;;;;;10.80;9.97;;;6.20;1.00;;;;;;5093579;28;20454;-78
2023/04/14 04:41:51;;;;;;;10.83;10.17;;;6.20;1.00;;;;;;5095545;28;20452;-78
2023/04/14 04:44:19;;;;;;;10.70;10.20;;;6.20;1.00;;;;;;5088997;28;20473;-79
2023/04/14 04:46:53;;;;;;;10.13;9.67;;;6.30;1.00;;;;;;5095973;28;20473;-80
2023/04/14 04:49:21;;;;;;;10.23;9.80;;;6.30;1.00;;;;;;5099313;28;20480;-81
2023/04/14 04:51:50;;;;;;;11.17;10.40;;;6.20;1.00;;;;;;5097809;28;20458;-80
2023/04/14 04:54:18;;;;;;;12.37;11.57;;;6.20;1.00;;;;;;5083853;28;21029;-79
2023/04/14 04:56:48;;;;;;;11.23;10.53;;;6.20;1.00;;;;;;5099646;27;20565;-79
2023/04/14 04:59:16;;;;;;;11.00;10.60;;;6.20;1.00;;;;;;5096460;28;20455;-80
2023/04/14 05:01:44;;;;;;;10.77;10.20;;;6.20;1.00;;;;;;5096173;28;20456;-79
2023/04/14 05:04:12;;;;;;;10.80;10.03;;;6.30;1.00;;;;;;5097650;28;20459;-78
2023/04/14 05:06:41;;;;;;;11.70;10.93;;;6.30;1.00;;;;;;5098243;28;21013;-80
2023/04/14 05:09:09;;;;;;;11.27;10.50;;;6.20;1.00;;;;;;5098485;28;20562;-77
2023/04/14 05:11:37;;;;;;;10.27;9.73;;;6.20;1.00;;;;;;5097543;28;20542;-77
2023/04/14 05:14:06;;;;;;;12.10;10.30;;;6.20;1.00;;;;;;5081818;28;21770;-79
2023/04/14 05:16:35;;;;;;;10.30;9.70;;;6.20;1.00;;;;;;5091389;28;20569;-78
2023/04/14 05:19:03;;;;;;;11.07;10.33;;;6.40;1.00;;;;;;5095359;28;20543;-76
2023/04/14 05:21:31;;;;;;;11.93;11.03;;;6.40;1.00;;;;;;5088272;28;20457;-78
2023/04/14 05:24:00;;;;;;;10.87;9.97;;;6.40;1.00;;;;;;5075584;28;21262;-79
2023/04/14 05:26:28;;;;;;;10.97;10.23;;;6.40;1.00;;;;;;5096790;28;20525;-79
2023/04/14 05:28:59;;;;;;;10.50;9.80;;;6.30;1.00;;;;;;5097874;28;20451;-78
2023/04/14 05:31:29;;;;;;;10.77;10.20;;;6.30;1.00;;;;;;5097413;27;20563;-79
2023/04/14 05:33:57;;;;;;;11.60;10.77;;;6.40;1.00;;;;;;5096660;28;20452;-80
2023/04/14 05:36:26;;;;;;;10.83;10.13;;;6.40;1.00;;;;;;5095693;28;21019;-80
2023/04/14 05:38:54;;;;;;;10.63;9.93;;;6.40;1.00;;;;;;5089954;28;20480;-81
2023/04/14 05:41:22;;;;;;;10.07;9.67;;;6.50;1.00;;;;;;5095433;28;20801;-80
2023/04/14 05:43:50;;;;;;;12.47;9.90;;;6.60;1.00;;;;;;5101097;28;20448;-80
2023/04/14 05:46:19;;;;;;;10.90;10.13;;;6.70;1.00;;;;;;5100172;28;20478;-80
2023/04/14 05:48:48;;;;;;;10.30;9.60;;;6.80;1.00;;;;;;5100926;28;20483;-80
2023/04/14 05:51:16;;;;;;;11.10;9.70;;;6.80;1.00;;;;;;5082508;28;20459;-79
2023/04/14 05:53:44;;;;;;;10.17;9.57;;;6.90;1.00;;;;;;5100494;28;20443;-82
2023/04/14 05:56:13;;;;;;;11.17;10.53;;;7.00;1.00;;;;;;5094733;28;21046;-82
2023/04/14 05:58:41;;;;;;;10.93;10.20;;;7.10;1.00;;;;;;5096381;28;20449;-79
2023/04/14 06:01:09;;;;;;;11.27;10.50;;;7.20;1.00;;;;;;5096373;28;20440;-79
2023/04/14 06:03:37;;;;;;;9.90;9.60;;;7.40;1.00;;;;;;5090006;28;20455;-80
2023/04/14 06:06:09;;;;;;;9.90;9.53;;;7.60;99.90;;;;;;5094364;28;20505;-80
2023/04/14 06:08:37;;;;;;;9.67;9.27;;;7.80;99.90;;;;;;5095657;28;20481;-79
2023/04/14 06:11:05;;;;;;;10.60;9.87;;;8.00;99.90;;;;;;5090882;27;20512;-80
2023/04/14 06:13:33;;;;;;;10.10;9.67;;;8.30;99.90;;;;;;5093450;27;20457;-78
2023/04/14 06:16:03;;;;;;;10.43;9.93;;;8.50;99.90;;;;;;5095328;28;20456;-81
2023/04/14 06:18:31;;;;;;;9.90;9.60;;;8.90;99.90;;;;;;5095445;28;20454;-81
2023/04/14 06:20:59;;;;;;;10.43;9.93;;;9.10;99.90;;;;;;5098909;27;20457;-80
2023/04/14 06:23:30;;;;;;;11.37;10.77;;;9.30;99.90;;;;;;5097059;28;21203;-79
2023/04/14 06:25:58;;;;;;;14.33;13.33;;;9.50;99.90;;;;;;5093911;28;21039;-79
2023/04/14 06:28:26;;;;;;;10.87;10.47;;;9.80;99.90;;;;;;5095846;28;20551;-78
2023/04/14 06:30:54;;;;;;;10.03;9.63;;;9.90;99.90;;;;;;5093569;28;20452;-79
2023/04/14 06:33:22;;;;;;;10.17;9.80;;;10.10;99.90;;;;;;5095791;28;20450;-78
2023/04/14 06:35:50;;;;;;;10.47;9.87;;;10.20;99.90;;;;;;5096105;28;20993;-79
2023/04/14 06:38:19;;;;;;;9.90;9.47;;;10.40;99.90;;;;;;5073747;28;20454;-79
2023/04/14 06:40:49;;;;;;;10.90;10.03;;;10.50;99.90;;;;;;5090048;28;20469;-82
2023/04/14 06:43:20;;;;;;;10.70;10.23;;;10.70;99.90;;;;;;5095019;28;21376;-81
2023/04/14 06:45:49;;;;;;;10.83;10.17;;;10.90;99.90;;;;;;5098403;27;20837;-79
2023/04/14 06:48:18;;;;;;;10.20;9.50;;;11.10;99.90;;;;;;5096597;28;20510;-80
2023/04/14 06:50:53;;;;;;;9.93;9.63;;;11.30;99.90;;;;;;5097007;28;20440;-81
2023/04/14 06:53:21;;;;;;;9.97;9.60;;;11.40;99.90;;;;;;5097368;28;20462;-81
2023/04/14 06:55:57;;;;;;;9.70;9.30;;;11.60;99.90;;;;;;5094568;28;20526;-80
2023/04/14 06:58:26;;;;;;;10.37;9.87;;;11.70;99.90;;;;;;5094016;28;20448;-81
2023/04/14 07:00:56;;;;;;;10.13;9.63;;;11.80;99.90;;;;;;5093948;28;20452;-80
2023/04/14 07:03:24;;;;;;;10.33;9.63;;;11.90;99.90;;;;;;5093307;28;20459;-81
2023/04/14 07:05:53;;;;;;;9.93;9.53;;;12.00;99.90;;;;;;5096795;28;20525;-80
2023/04/14 07:08:21;;;;;;;11.27;10.73;;;12.10;99.90;;;;;;5101101;28;20504;-79
2023/04/14 07:11:00;;;;;;;9.83;9.23;;;12.20;99.90;;;;;;5100086;28;20479;-78
2023/04/14 07:13:28;;;;;;;9.90;9.60;;;12.30;99.90;;;;;;5101582;28;20458;-79
2023/04/14 07:15:56;;;;;;;9.63;9.20;;;12.20;99.90;;;;;;5098139;28;20570;-77
2023/04/14 07:18:24;;;;;;;11.13;10.50;;;12.30;99.90;;;;;;5100174;28;20450;-79
2023/04/14 07:20:54;;;;;;;10.57;10.10;;;12.40;99.90;;;;;;5099103;28;21118;-79
2023/04/14 07:23:22;;;;;;;10.47;10.10;;;12.50;99.90;;;;;;5098878;28;20449;-79
2023/04/14 07:25:52;;;;;;;10.67;10.17;;;12.50;99.90;;;;;;5100156;28;20474;-79
2023/04/14 07:28:21;;;;;;;10.73;10.00;;;12.50;99.90;;;;;;5103218;28;20467;-80
2023/04/14 07:30:50;;;;;;;11.13;10.70;;;12.50;99.90;;;;;;5077975;28;20473;-81
2023/04/14 07:33:21;;;;;;;10.43;9.97;;;12.70;99.90;;;;;;5097033;28;20463;-81
2023/04/14 07:35:49;;;;;;;10.57;10.23;;;12.80;99.90;;;;;;5099865;28;21061;-79
2023/04/14 07:38:30;;;;;;;9.87;9.63;;;12.90;99.90;;;;;;5099013;28;20512;-79
2023/04/14 07:41:00;;;;;;;9.90;9.70;;;13.00;99.90;;;;;;5098037;28;20558;-81
2023/04/14 07:43:33;;;;;;;10.13;9.63;;;13.00;99.90;;;;;;5101432;28;21229;-80
2023/04/14 07:46:03;;;;;;;9.97;9.57;;;13.00;99.90;;;;;;5104514;28;20501;-79
2023/04/14 07:48:31;;;;;;;9.70;9.33;;;12.80;99.90;;;;;;5097953;28;20452;-81
2023/04/14 07:50:59;;;;;;;10.53;9.73;;;12.80;99.90;;;;;;5100831;28;20524;-81
2023/04/14 07:53:28;;;;;;;8.87;8.60;;;12.80;99.90;;;;;;5100323;28;20465;-79
2023/04/14 07:55:56;;;;;;;9.23;9.00;;;12.90;99.90;;;;;;5097231;28;20512;-80
2023/04/14 07:58:26;;;;;;;10.00;9.20;;;13.00;99.90;;;;;;5092942;28;20483;-81
2023/04/14 08:00:56;;;;;;;9.07;8.67;;;12.90;99.90;;;;;;5092571;28;20540;-82
2023/04/14 08:03:24;;;;;;;9.20;9.00;;;12.90;99.90;;;;;;5096335;28;20467;-83
2023/04/14 08:05:53;;;;;;;9.33;8.90;;;12.90;99.90;;;;;;5092344;28;20528;-80
2023/04/14 08:08:21;;;;;;;9.43;9.00;;;12.90;99.90;;;;;;5095417;28;20464;-81
2023/04/14 08:10:50;;;;;;;9.40;9.07;;;13.00;99.90;;;;;;5093213;28;20649;-81
2023/04/14 08:13:18;;;;;;;8.80;8.40;;;13.00;99.90;;;;;;5094894;28;20460;-80
2023/04/14 08:15:49;;;;;;;9.03;8.83;;;13.00;99.90;;;;;;5095073;28;20488;-81
2023/04/14 08:18:17;;;;;;;9.03;8.63;;;13.00;99.90;;;;;;5096904;28;20449;-81
2023/04/14 08:20:45;;;;;;;8.67;8.37;;;13.00;99.90;;;;;;5078138;28;20454;-80
2023/04/14 08:23:13;;;;;;;8.37;8.10;;;13.00;99.90;;;;;;5094275;28;20450;-80
2023/04/14 08:25:42;;;;;;;8.50;8.17;;;13.10;99.90;;;;;;5098166;28;20484;-81
2023/04/14 08:28:10;;;;;;;8.97;8.67;;;13.20;99.90;;;;;;5099113;28;20468;-80
2023/04/14 08:30:38;;;;;;;9.43;9.00;;;13.20;99.90;;;;;;5097591;28;21004;-81
2023/04/14 08:33:07;;;;;;;9.00;8.67;;;13.20;99.90;;;;;;5101224;28;20448;-80
2023/04/14 08:35:36;;;;;;;8.40;8.10;;;13.20;99.90;;;;;;5099341;28;21034;-81
2023/04/14 08:38:10;;;;;;;9.43;9.03;;;13.30;99.90;;;;;;5099859;27;20859;-82
2023/04/14 08:40:39;;;;;;;8.77;8.47;;;13.30;99.90;;;;;;5103231;28;20547;-79
2023/04/14 08:43:08;;;;;;;8.83;8.43;;;13.30;99.90;;;;;;5102109;28;20986;-81
2023/04/14 08:45:40;;;;;;;9.37;8.83;;;13.40;99.90;;;;;;5102566;28;20476;-81
2023/04/14 08:48:11;;;;;;;9.37;8.73;;;13.50;99.90;;;;;;5099803;28;20448;-80
2023/04/14 08:50:49;;;;;;;8.87;8.40;;;13.60;99.90;;;;;;5100370;28;20475;-80
2023/04/14 08:53:21;;;;;;;9.67;8.67;;;13.60;99.90;;;;;;5102386;28;20438;-80
2023/04/14 08:55:51;;;;;;;8.93;8.53;;;13.70;99.90;;;;;;5091886;28;20480;-80
2023/04/14 08:58:19;;;;;;;8.90;8.70;;;13.80;99.90;;;;;;5099484;28;20467;-80
2023/04/14 09:00:48;;;;;;;8.53;8.33;;;13.90;99.90;;;;;;5100438;28;20456;-81
2023/04/14 09:03:19;;;;;;;8.77;8.37;;;13.90;99.90;;;;;;5086576;28;20440;-80
2023/04/14 09:05:48;;;;;;;9.10;8.60;;;14.00;99.90;;;;;;5099475;28;20509;-81
2023/04/14 09:08:17;;;;;;;9.77;9.27;;;14.00;99.90;;;;;;5092679;28;20476;-82
2023/04/14 09:10:45;;;;;;;9.10;8.50;;;14.10;99.90;;;;;;5113426;28;20480;-82
2023/04/14 09:13:16;;;;;;;9.13;8.43;;;14.10;99.90;;;;;;5116539;27;20480;-82
2023/04/14 09:15:44;;;;;;;9.43;8.70;;;14.20;99.90;;;;;;5095158;28;20481;-80
2023/04/14 09:18:12;;;;;;;8.83;8.37;;;14.10;99.90;;;;;;5109688;28;20456;-79
2023/04/14 09:20:42;;;;;;;8.27;7.70;;;14.10;99.90;;;;;;5107350;27;20451;-83
2023/04/14 09:23:11;;;;;;;9.13;8.33;;;14.20;99.90;;;;;;5107239;28;20455;-80
2023/04/14 09:25:40;;;;;;;8.33;7.93;;;14.20;99.90;;;;;;5095900;28;20482;-82
2023/04/14 09:28:08;;;;;;;7.90;7.40;;;14.10;99.90;;;;;;5103490;27;20947;-82
2023/04/14 09:30:36;;;;;;;8.60;8.30;;;14.20;99.90;;;;;;5078802;28;20265;-81
2023/04/14 09:33:06;;;;;;;9.00;8.60;;;14.30;99.90;;;;;;5101288;28;20509;-80
2023/04/14 09:35:46;;;;;;;8.83;8.33;;;14.50;99.90;;;;;;5104904;28;21081;-82
2023/04/14 09:38:14;;;;;;;7.53;7.13;;;14.50;99.90;;;;;;5102876;28;20523;-80
2023/04/14 09:40:43;;;;;;;7.30;7.00;;;14.40;97.80;;;;;;5105067;28;20452;-81
2023/04/14 09:43:25;;;;;;;7.27;6.97;;;14.10;91.40;;;;;;5087244;28;20523;-81
2023/04/14 09:45:55;;;;;;;7.67;7.27;;;13.80;87.90;;;;;;5106887;27;20486;-82
2023/04/14 09:48:24;;;;;;;8.03;7.47;;;13.70;85.10;;;;;;5102987;28;20479;-80
2023/04/14 09:51:02;;;;;;;7.30;6.90;;;13.80;91.60;;;;;;5097250;28;20451;-80
2023/04/14 09:53:32;;;;;;;7.90;7.50;;;14.00;97.10;;;;;;5103858;28;20428;-79
2023/04/14 09:56:02;;;;;;;8.10;7.70;;;14.20;96.30;;;;;;5103208;28;20457;-80
2023/04/14 09:58:31;;;;;;;6.87;6.57;;;14.40;95.60;;;;;;5103450;28;21318;-81
2023/04/14 10:00:59;;;;;;;7.70;7.10;;;14.30;90.60;;;;;;5102214;28;20448;-80
2023/04/14 10:03:39;;;;;;;7.60;7.00;;;14.20;90.40;;;;;;5102578;27;20453;-79
2023/04/14 10:06:14;;;;;;;7.23;7.00;;;14.20;90.60;;;;;;5098929;28;20484;-80
2023/04/14 10:08:45;;;;;;;8.60;8.13;;;14.20;90.40;;;;;;5100744;28;20456;-81
2023/04/14 10:11:15;;;;;;;8.20;7.80;;;14.30;92.70;;;;;;5101395;28;20474;-80
2023/04/14 10:13:44;;;;;;;8.77;7.97;;;14.40;95.50;;;;;;5098940;28;20450;-81
2023/04/14 10:16:12;;;;;;;8.73;8.20;;;14.50;95.90;;;;;;5089931;28;20484;-82
2023/04/14 10:18:40;;;;;;;7.27;7.07;;;14.60;93.80;;;;;;5097854;28;20548;-80
2023/04/14 10:21:10;;;;;;;7.43;7.23;;;14.70;93.60;;;;;;5096011;28;20662;-81
2023/04/14 10:23:40;;;;;;;7.23;7.03;;;14.70;91.40;;;;;;5095610;28;20449;-81
2023/04/14 10:26:10;;;;;;;6.93;6.73;;;14.60;89.90;;;;;;5098027;27;20485;-81
2023/04/14 10:28:40;;;;;;;7.93;7.30;;;14.50;83.30;;;;;;5096760;28;20453;-81
2023/04/14 10:31:12;;;;;;;7.03;6.83;;;14.50;84.00;;;;;;5097920;28;20491;-81
2023/04/14 10:33:41;;;;;;;6.97;6.77;;;14.30;79.80;;;;;;5084482;28;21220;-82
2023/04/14 10:36:10;;;;;;;8.43;7.87;;;14.40;75.90;;;;;;5096648;28;20605;-81
2023/04/14 10:38:41;;;;;;;6.90;6.50;;;14.50;73.00;;;;;;5095102;27;20990;-80
2023/04/14 10:41:10;;;;;;;7.33;7.10;;;14.40;71.70;;;;;;5098749;28;20487;-81
2023/04/14 10:43:39;;;;;;;7.20;7.00;;;14.70;89.40;;;;;;5087462;28;20484;-80
2023/04/14 10:46:08;;;;;;;7.03;6.93;;;14.90;91.10;;;;;;5095919;28;20475;-80
2023/04/14 10:48:38;;;;;;;7.50;7.20;;;14.90;91.10;;;;;;5093046;28;20446;-81
2023/04/14 10:51:10;;;;;;;7.30;7.10;;;15.00;92.30;;;;;;5093588;28;20461;-80
2023/04/14 10:53:45;;;;;;;7.70;7.40;;;15.10;90.70;;;;;;5081827;28;21165;-81
2023/04/14 10:56:13;;;;;;;7.20;6.80;;;15.20;92.10;;;;;;5088687;28;20550;-80
2023/04/14 10:58:53;;;;;;;6.93;6.63;;;15.10;90.90;;;;;;5098842;28;20984;-80
2023/04/14 11:01:24;;;;;;;7.17;6.87;;;15.20;90.10;;;;;;5103397;28;20482;-81
2023/04/14 11:03:54;;;;;;;7.00;6.70;;;15.30;91.40;;;;;;5095821;28;20473;-81
2023/04/14 11:06:51;;;;;;;6.40;6.20;;;15.40;91.00;;;;;;5101887;28;20479;-81
2023/04/14 11:09:31;;;;;;;7.23;6.83;;;15.50;90.80;;;;;;5102569;28;20459;-82
2023/04/14 11:12:04;;;;;;;6.80;6.40;;;15.50;91.00;;;;;;5100877;28;20535;-80
2023/04/14 11:14:34;;;;;;;6.40;6.20;;;15.50;96.90;;;;;;5091050;28;20446;-80
2023/04/14 11:17:04;;;;;;;6.40;6.00;;;15.50;80.50;;;;;;5098907;28;20479;-79
2023/04/14 11:19:33;;;;;;;8.40;7.60;;;15.50;78.90;;;;;;5091139;28;20448;-75
2023/04/14 11:22:02;;;;;;;7.63;7.20;;;15.50;85.00;;;;;;5083427;28;20442;-78
2023/04/14 11:24:31;;;;;;;7.13;6.80;;;15.60;95.40;;;;;;5080293;28;20458;-77
2023/04/14 11:26:59;;;;;;;7.70;7.30;;;15.60;93.10;;;;;;5101988;28;21321;-79
2023/04/14 11:29:28;;;;;;;6.27;6.00;;;15.60;99.80;;;;;;5093974;28;20490;-78
2023/04/14 11:32:05;;;;;;;6.60;6.30;;;15.50;91.00;;;;;;5090648;28;20474;-76
2023/04/14 11:34:34;;;;;;;7.23;6.63;;;15.60;92.90;;;;;;5092684;28;20533;-78
2023/04/14 11:37:04;;;;;;;5.90;5.70;;;15.40;79.10;;;;;;5089793;28;20480;-76
2023/04/14 11:39:34;;;;;;;6.37;6.17;;;15.20;73.30;;;;;;5090038;27;20455;-77
2023/04/14 11:42:04;;;;;;;7.17;6.60;;;15.20;74.90;;;;;;5089883;28;20449;-76
2023/04/14 11:44:32;;;;;;;6.37;6.10;;;15.30;87.50;;;;;;5092965;28;20493;-76
2023/04/14 11:47:01;;;;;;;6.37;5.97;;;15.40;76.50;;;;;;5093779;28;20471;-76
2023/04/14 11:49:36;;;;;;;6.00;5.80;;;15.50;81.30;;;;;;5094317;28;20461;-77
2023/04/14 11:52:07;;;;;;;6.27;5.83;;;15.50;81.80;;;;;;5094420;28;20469;-78
2023/04/14 11:54:36;;;;;;;6.50;6.30;;;15.70;87.10;;;;;;5090632;28;20837;-78
2023/04/14 11:57:09;;;;;;;7.40;7.10;;;15.70;86.20;;;;;;5094903;28;20468;-77
2023/04/14 11:59:42;;;;;;;6.70;6.50;;;15.70;89.20;;;;;;5099434;28;20929;-76
2023/04/14 12:02:17;;;;;;;6.80;6.50;;;15.80;91.00;;;;;;5101616;28;20844;-77
2023/04/14 12:04:47;;;;;;;6.50;6.10;;;15.80;86.40;;;;;;5102558;28;20456;-77
2023/04/14 12:07:20;;;;;;;6.50;6.20;;;15.90;85.30;;;;;;5097744;28;20571;-77
2023/04/14 12:09:50;;;;;;;6.63;6.23;;;15.80;68.60;;;;;;5099335;28;21041;-76
2023/04/14 12:12:19;;;;;;;5.90;5.60;;;15.90;80.50;;;;;;5094171;28;20477;-77
2023/04/14 12:14:49;;;;;;;6.07;5.77;;;15.90;73.80;;;;;;5078147;28;21641;-79
2023/04/14 12:17:19;;;;;;;5.17;5.07;;;15.90;76.00;;;;;;5097141;27;20467;-76
2023/04/14 12:19:47;;;;;;;5.50;5.10;;;15.80;68.20;;;;;;5097463;28;20549;-76
2023/04/14 12:22:23;;;;;;;5.73;5.43;;;15.70;62.90;;;;;;5098012;28;20476;-76
2023/04/14 12:24:51;;;;;;;4.70;4.60;;;15.60;59.70;;;;;;5098280;28;20464;-76
2023/04/14 12:27:22;;;;;;;5.67;5.40;;;15.50;56.90;;;;;;5097861;28;20927;-77
2023/04/14 12:29:50;;;;;;;4.80;4.50;;;15.50;77.00;;;;;;5097531;27;20461;-77
2023/04/14 12:32:20;;;;;;;5.20;4.90;;;15.50;60.00;;;;;;5100892;28;20531;-77
2023/04/14 12:34:57;;;;;;;5.40;5.20;;;15.50;61.40;;;;;;5098488;28;20446;-78
2023/04/14 12:37:28;;;;;;;4.90;4.70;;;15.60;62.40;;;;;;5097641;28;20612;-76
2023/04/14 12:39:58;;;;;;;5.10;4.90;;;15.70;64.40;;;;;;5092772;28;20544;-80
2023/04/14 12:42:28;;;;;;;5.43;5.00;;;15.70;64.80;;;;;;5093346;28;20447;-77
2023/04/14 12:44:58;;;;;;;5.13;4.93;;;15.80;68.20;;;;;;5098600;28;20524;-77
2023/04/14 12:47:31;;;;;;;5.37;4.90;;;15.80;64.10;;;;;;5097171;28;20473;-79
2023/04/14 12:50:01;;;;;;;5.50;5.20;;;15.80;69.30;;;;;;5095519;28;20503;-76
2023/04/14 12:52:38;;;;;;;5.60;5.13;;;15.80;66.80;;;;;;5094162;28;20998;-77
2023/04/14 12:55:18;;;;;;;5.03;4.90;;;15.90;66.00;;;;;;5094434;28;20476;-78
2023/04/14 12:57:46;;;;;;;5.30;5.00;;;15.80;62.40;;;;;;5099178;28;20446;-81
2023/04/14 13:00:15;;;;;;;5.23;4.93;;;15.80;58.90;;;;;;5103848;28;20207;-80
2023/04/14 13:02:43;;;;;;;5.37;4.97;;;15.80;58.90;;;;;;5105062;28;20523;-81